sensor_id;sensor_type;location;lat;lon;timestamp;pressure;altitude;pressure_sealevel;temperature;humidity
39301;BME280;25019;42.626;23.380;2023-06-14T00:00:20;94162.31;;;16.52;100.00
39301;BME280;25019;42.626;23.380;2023-06-14T00:02:46;94169.47;;;16.56;100.00
39301;BME280;25019;42.626;23.380;2023-06-14T00:05:12;94168.31;;;16.62;100.00
39301;BME280;25019;42.626;23.380;2023-06-14T00:07:40;94165.06;;;16.66;100.00
39301;BME280;25019;42.626;23.380;2023-06-14T00:10:10;94144.34;;;16.52;100.00
39301;BME280;25019;42.626;23.380;2023-06-14T00:12:36;94162.56;;;16.69;100.00
39301;BME280;25019;42.626;23.380;2023-06-14T00:15:02;94160.41;;;16.71;100.00
39301;BME280;25019;42.626;23.380;2023-06-14T00:17:28;94154.25;;;16.71;100.00
39301;BME280;25019;42.626;23.380;2023-06-14T00:19:59;94141.78;;;16.61;100.00
39301;BME280;25019;42.626;23.380;2023-06-14T00:22:25;94090.16;;;16.36;100.00
39301;BME280;25019;42.626;23.380;2023-06-14T00:24:51;94152.66;;;16.70;100.00
39301;BME280;25019;42.626;23.380;2023-06-14T00:27:17;94142.66;;;16.56;100.00
39301;BME280;25019;42.626;23.380;2023-06-14T00:29:43;94138.41;;;16.36;100.00
39301;BME280;25019;42.626;23.380;2023-06-14T00:32:09;94149.94;;;16.37;100.00
39301;BME280;25019;42.626;23.380;2023-06-14T00:34:35;94143.06;;;16.30;100.00
39301;BME280;25019;42.626;23.380;2023-06-14T00:37:01;94138.06;;;16.24;100.00
39301;BME280;25019;42.626;23.380;2023-06-14T00:39:26;94143.69;;;16.22;100.00
39301;BME280;25019;42.626;23.380;2023-06-14T00:41:52;94146.09;;;16.24;100.00
39301;BME280;25019;42.626;23.380;2023-06-14T00:44:19;94130.31;;;16.22;100.00
39301;BME280;25019;42.626;23.380;2023-06-14T00:46:45;94145.72;;;16.30;100.00
39301;BME280;25019;42.626;23.380;2023-06-14T00:49:12;94099.09;;;16.12;100.00
39301;BME280;25019;42.626;23.380;2023-06-14T00:51:41;94136.81;;;16.35;100.00
39301;BME280;25019;42.626;23.380;2023-06-14T00:54:07;94085.06;;;16.01;100.00
39301;BME280;25019;42.626;23.380;2023-06-14T00:56:35;94135.44;;;16.38;100.00
39301;BME280;25019;42.626;23.380;2023-06-14T00:59:02;94137.25;;;16.42;100.00
39301;BME280;25019;42.626;23.380;2023-06-14T01:01:28;94053.94;;;15.86;100.00
39301;BME280;25019;42.626;23.380;2023-06-14T01:03:54;94131.31;;;16.45;100.00
39301;BME280;25019;42.626;23.380;2023-06-14T01:06:35;94087.03;;;16.15;100.00
39301;BME280;25019;42.626;23.380;2023-06-14T01:09:27;94130.28;;;16.41;100.00
39301;BME280;25019;42.626;23.380;2023-06-14T01:12:07;94086.59;;;16.08;100.00
39301;BME280;25019;42.626;23.380;2023-06-14T01:14:38;94128.78;;;16.35;100.00
39301;BME280;25019;42.626;23.380;2023-06-14T01:17:04;94117.66;;;16.28;100.00
39301;BME280;25019;42.626;23.380;2023-06-14T01:19:32;94137.63;;;16.36;100.00
39301;BME280;25019;42.626;23.380;2023-06-14T01:22:00;94129.59;;;16.36;100.00
39301;BME280;25019;42.626;23.380;2023-06-14T01:24:26;94134.38;;;16.39;100.00
39301;BME280;25019;42.626;23.380;2023-06-14T01:26:59;94137.56;;;16.41;100.00
39301;BME280;25019;42.626;23.380;2023-06-14T01:29:27;94105.84;;;16.29;100.00
39301;BME280;25019;42.626;23.380;2023-06-14T01:31:58;94134.88;;;16.41;100.00
39301;BME280;25019;42.626;23.380;2023-06-14T01:34:29;94139.16;;;16.42;100.00
39301;BME280;25019;42.626;23.380;2023-06-14T01:36:55;94131.38;;;16.40;100.00
39301;BME280;25019;42.626;23.380;2023-06-14T01:39:22;94133.28;;;16.40;100.00
39301;BME280;25019;42.626;23.380;2023-06-14T01:41:49;94134.63;;;16.37;100.00
39301;BME280;25019;42.626;23.380;2023-06-14T01:44:17;94128.19;;;16.38;100.00
39301;BME280;25019;42.626;23.380;2023-06-14T01:46:44;94130.66;;;16.35;100.00
39301;BME280;25019;42.626;23.380;2023-06-14T01:49:11;94129.59;;;16.36;100.00
39301;BME280;25019;42.626;23.380;2023-06-14T01:51:36;94129.06;;;16.33;100.00
39301;BME280;25019;42.626;23.380;2023-06-14T01:54:02;94125.38;;;16.29;100.00
39301;BME280;25019;42.626;23.380;2023-06-14T01:56:28;94124.66;;;16.24;100.00
39301;BME280;25019;42.626;23.380;2023-06-14T01:58:54;94117.47;;;16.19;100.00
39301;BME280;25019;42.626;23.380;2023-06-14T02:01:20;94127.41;;;16.18;100.00
39301;BME280;25019;42.626;23.380;2023-06-14T02:03:47;94136.53;;;16.17;100.00
39301;BME280;25019;42.626;23.380;2023-06-14T02:06:15;94135.44;;;16.18;100.00
39301;BME280;25019;42.626;23.380;2023-06-14T02:08:43;94140.81;;;16.18;100.00
39301;BME280;25019;42.626;23.380;2023-06-14T02:11:09;94142.97;;;16.16;100.00
39301;BME280;25019;42.626;23.380;2023-06-14T02:13:35;94146.16;;;16.18;100.00
39301;BME280;25019;42.626;23.380;2023-06-14T02:16:01;94145.34;;;16.18;100.00
39301;BME280;25019;42.626;23.380;2023-06-14T02:18:27;94154.72;;;16.21;100.00
39301;BME280;25019;42.626;23.380;2023-06-14T02:20:55;94142.78;;;16.13;100.00
39301;BME280;25019;42.626;23.380;2023-06-14T02:23:20;94142.25;;;16.11;100.00
39301;BME280;25019;42.626;23.380;2023-06-14T02:25:46;94140.44;;;16.06;100.00
39301;BME280;25019;42.626;23.380;2023-06-14T02:28:12;94102.16;;;15.86;100.00
39301;BME280;25019;42.626;23.380;2023-06-14T02:30:38;94157.97;;;16.17;100.00
39301;BME280;25019;42.626;23.380;2023-06-14T02:33:04;94158.75;;;16.18;100.00
39301;BME280;25019;42.626;23.380;2023-06-14T02:35:31;94158.47;;;16.20;100.00
39301;BME280;25019;42.626;23.380;2023-06-14T02:37:57;94153.41;;;16.18;100.00
39301;BME280;25019;42.626;23.380;2023-06-14T02:40:22;94158.53;;;16.14;100.00
39301;BME280;25019;42.626;23.380;2023-06-14T02:42:49;94155.41;;;16.07;100.00
39301;BME280;25019;42.626;23.380;2023-06-14T02:45:16;94161.22;;;16.14;100.00
39301;BME280;25019;42.626;23.380;2023-06-14T02:47:42;94164.47;;;16.11;100.00
39301;BME280;25019;42.626;23.380;2023-06-14T02:50:08;94161.00;;;16.11;100.00
39301;BME280;25019;42.626;23.380;2023-06-14T02:52:33;94164.41;;;16.16;100.00
39301;BME280;25019;42.626;23.380;2023-06-14T02:54:59;94158.53;;;16.14;100.00
39301;BME280;25019;42.626;23.380;2023-06-14T02:57:25;94121.84;;;15.96;100.00
39301;BME280;25019;42.626;23.380;2023-06-14T02:59:51;94163.47;;;16.26;100.00
39301;BME280;25019;42.626;23.380;2023-06-14T03:02:17;94154.72;;;16.21;100.00
39301;BME280;25019;42.626;23.380;2023-06-14T03:04:44;94166.09;;;16.31;100.00
39301;BME280;25019;42.626;23.380;2023-06-14T03:07:14;94170.06;;;16.34;100.00
39301;BME280;25019;42.626;23.380;2023-06-14T03:09:48;94171.38;;;16.37;100.00
39301;BME280;25019;42.626;23.380;2023-06-14T03:12:15;94173.19;;;16.41;100.00
39301;BME280;25019;42.626;23.380;2023-06-14T03:14:41;94162.25;;;16.38;100.00
39301;BME280;25019;42.626;23.380;2023-06-14T03:17:08;94170.22;;;16.43;100.00
39301;BME280;25019;42.626;23.380;2023-06-14T03:19:38;94139.44;;;16.21;100.00
39301;BME280;25019;42.626;23.380;2023-06-14T03:22:04;94174.06;;;16.37;100.00
39301;BME280;25019;42.626;23.380;2023-06-14T03:24:31;94175.94;;;16.36;100.00
39301;BME280;25019;42.626;23.380;2023-06-14T03:27:05;94178.41;;;16.32;100.00
39301;BME280;25019;42.626;23.380;2023-06-14T03:29:30;94180.00;;;16.33;100.00
39301;BME280;25019;42.626;23.380;2023-06-14T03:34:24;94112.06;;;16.05;100.00
39301;BME280;25019;42.626;23.380;2023-06-14T03:36:50;94178.97;;;16.48;100.00
39301;BME280;25019;42.626;23.380;2023-06-14T03:39:15;94131.97;;;16.18;100.00
39301;BME280;25019;42.626;23.380;2023-06-14T03:41:41;94179.47;;;16.51;100.00
39301;BME280;25019;42.626;23.380;2023-06-14T03:44:07;94183.19;;;16.55;100.00
39301;BME280;25019;42.626;23.380;2023-06-14T03:46:33;94181.00;;;16.57;100.00
39301;BME280;25019;42.626;23.380;2023-06-14T03:48:58;94178.03;;;16.58;100.00
39301;BME280;25019;42.626;23.380;2023-06-14T03:51:24;94180.50;;;16.55;100.00
39301;BME280;25019;42.626;23.380;2023-06-14T03:53:51;94141.47;;;16.29;100.00
39301;BME280;25019;42.626;23.380;2023-06-14T03:56:17;94190.03;;;16.61;100.00
39301;BME280;25019;42.626;23.380;2023-06-14T03:58:42;94188.66;;;16.63;100.00
39301;BME280;25019;42.626;23.380;2023-06-14T04:01:09;94186.00;;;16.63;100.00
39301;BME280;25019;42.626;23.380;2023-06-14T04:03:34;94183.59;;;16.62;100.00
39301;BME280;25019;42.626;23.380;2023-06-14T04:06:01;94197.72;;;16.68;100.00
39301;BME280;25019;42.626;23.380;2023-06-14T04:08:27;94193.06;;;16.73;100.00
39301;BME280;25019;42.626;23.380;2023-06-14T04:10:53;94189.31;;;16.74;100.00
39301;BME280;25019;42.626;23.380;2023-06-14T04:13:18;94197.56;;;16.78;100.00
39301;BME280;25019;42.626;23.380;2023-06-14T04:15:44;94191.91;;;16.80;100.00
39301;BME280;25019;42.626;23.380;2023-06-14T04:18:15;94178.28;;;16.76;100.00
39301;BME280;25019;42.626;23.380;2023-06-14T04:20:40;94150.31;;;16.63;100.00
39301;BME280;25019;42.626;23.380;2023-06-14T04:23:13;94175.75;;;16.85;100.00
39301;BME280;25019;42.626;23.380;2023-06-14T04:25:40;94201.09;;;16.92;100.00
39301;BME280;25019;42.626;23.380;2023-06-14T04:28:06;94204.88;;;16.91;100.00
39301;BME280;25019;42.626;23.380;2023-06-14T04:30:34;94169.03;;;16.68;100.00
39301;BME280;25019;42.626;23.380;2023-06-14T04:33:02;94197.75;;;17.01;100.00
39301;BME280;25019;42.626;23.380;2023-06-14T04:35:31;94200.97;;;17.17;100.00
39301;BME280;25019;42.626;23.380;2023-06-14T04:38:02;94150.13;;;17.12;100.00
39301;BME280;25019;42.626;23.380;2023-06-14T04:40:31;94140.34;;;17.16;100.00
39301;BME280;25019;42.626;23.380;2023-06-14T04:43:02;94134.22;;;17.15;100.00
39301;BME280;25019;42.626;23.380;2023-06-14T04:45:32;94196.19;;;17.75;100.00
39301;BME280;25019;42.626;23.380;2023-06-14T04:47:59;94178.38;;;18.07;100.00
39301;BME280;25019;42.626;23.380;2023-06-14T04:50:27;94144.66;;;18.01;100.00
39301;BME280;25019;42.626;23.380;2023-06-14T04:52:53;94192.50;;;18.63;100.00
39301;BME280;25019;42.626;23.380;2023-06-14T04:55:19;94198.63;;;18.78;100.00
39301;BME280;25019;42.626;23.380;2023-06-14T04:57:46;94197.47;;;18.93;100.00
39301;BME280;25019;42.626;23.380;2023-06-14T05:00:13;94199.34;;;19.06;100.00
39301;BME280;25019;42.626;23.380;2023-06-14T05:02:39;94207.69;;;19.05;100.00
39301;BME280;25019;42.626;23.380;2023-06-14T05:05:06;94202.97;;;19.10;100.00
39301;BME280;25019;42.626;23.380;2023-06-14T05:07:32;94109.25;;;18.58;100.00
39301;BME280;25019;42.626;23.380;2023-06-14T05:09:59;94210.44;;;19.36;100.00
39301;BME280;25019;42.626;23.380;2023-06-14T05:12:25;94156.13;;;19.11;100.00
39301;BME280;25019;42.626;23.380;2023-06-14T05:14:51;94212.56;;;19.48;100.00
39301;BME280;25019;42.626;23.380;2023-06-14T05:17:19;94215.97;;;19.71;100.00
39301;BME280;25019;42.626;23.380;2023-06-14T05:19:45;94166.16;;;19.51;100.00
39301;BME280;25019;42.626;23.380;2023-06-14T05:22:11;94209.69;;;19.76;100.00
39301;BME280;25019;42.626;23.380;2023-06-14T05:24:37;94213.66;;;19.87;100.00
39301;BME280;25019;42.626;23.380;2023-06-14T05:27:02;94227.91;;;20.11;100.00
39301;BME280;25019;42.626;23.380;2023-06-14T05:29:28;94227.28;;;20.23;100.00
39301;BME280;25019;42.626;23.380;2023-06-14T05:31:54;94220.16;;;20.18;100.00
39301;BME280;25019;42.626;23.380;2023-06-14T05:34:19;94230.31;;;20.30;100.00
39301;BME280;25019;42.626;23.380;2023-06-14T05:36:45;94234.91;;;20.29;100.00
39301;BME280;25019;42.626;23.380;2023-06-14T05:39:12;94234.44;;;20.36;100.00
39301;BME280;25019;42.626;23.380;2023-06-14T05:41:37;94232.88;;;20.44;100.00
39301;BME280;25019;42.626;23.380;2023-06-14T05:44:03;94237.66;;;20.47;100.00
39301;BME280;25019;42.626;23.380;2023-06-14T05:46:28;94226.53;;;20.40;100.00
39301;BME280;25019;42.626;23.380;2023-06-14T05:48:55;94239.53;;;20.29;100.00
39301;BME280;25019;42.626;23.380;2023-06-14T05:51:21;94182.25;;;19.74;100.00
39301;BME280;25019;42.626;23.380;2023-06-14T05:53:48;94231.19;;;19.99;100.00
39301;BME280;25019;42.626;23.380;2023-06-14T05:56:14;94246.22;;;19.91;100.00
39301;BME280;25019;42.626;23.380;2023-06-14T05:58:40;94165.22;;;19.24;100.00
39301;BME280;25019;42.626;23.380;2023-06-14T06:01:06;94245.47;;;19.76;100.00
39301;BME280;25019;42.626;23.380;2023-06-14T06:03:32;94169.38;;;19.30;100.00
39301;BME280;25019;42.626;23.380;2023-06-14T06:05:58;94247.34;;;19.99;100.00
39301;BME280;25019;42.626;23.380;2023-06-14T06:08:24;94237.84;;;20.01;100.00
39301;BME280;25019;42.626;23.380;2023-06-14T06:10:49;94245.47;;;20.08;100.00
39301;BME280;25019;42.626;23.380;2023-06-14T06:13:15;94205.81;;;19.91;100.00
39301;BME280;25019;42.626;23.380;2023-06-14T06:15:41;94250.16;;;20.34;100.00
39301;BME280;25019;42.626;23.380;2023-06-14T06:18:06;94218.56;;;20.17;100.00
39301;BME280;25019;42.626;23.380;2023-06-14T06:20:32;94257.19;;;20.61;100.00
39301;BME280;25019;42.626;23.380;2023-06-14T06:22:58;94210.38;;;20.57;100.00
39301;BME280;25019;42.626;23.380;2023-06-14T06:25:25;94205.31;;;20.82;100.00
39301;BME280;25019;42.626;23.380;2023-06-14T06:27:53;94257.06;;;21.28;100.00
39301;BME280;25019;42.626;23.380;2023-06-14T06:30:19;94257.03;;;21.37;100.00
39301;BME280;25019;42.626;23.380;2023-06-14T06:32:45;94260.88;;;21.18;100.00
39301;BME280;25019;42.626;23.380;2023-06-14T06:35:11;94263.44;;;20.88;100.00
39301;BME280;25019;42.626;23.380;2023-06-14T06:37:39;94264.97;;;20.72;100.00
39301;BME280;25019;42.626;23.380;2023-06-14T06:40:05;94271.00;;;20.69;100.00
39301;BME280;25019;42.626;23.380;2023-06-14T06:42:32;94262.59;;;20.70;100.00
39301;BME280;25019;42.626;23.380;2023-06-14T06:45:02;94225.56;;;20.35;100.00
39301;BME280;25019;42.626;23.380;2023-06-14T06:47:27;94271.31;;;20.67;100.00
39301;BME280;25019;42.626;23.380;2023-06-14T06:49:53;94274.97;;;20.71;100.00
39301;BME280;25019;42.626;23.380;2023-06-14T06:52:18;94269.72;;;20.66;100.00
39301;BME280;25019;42.626;23.380;2023-06-14T06:54:44;94265.47;;;20.74;100.00
39301;BME280;25019;42.626;23.380;2023-06-14T06:57:10;94269.28;;;20.73;100.00
39301;BME280;25019;42.626;23.380;2023-06-14T06:59:36;94264.97;;;20.72;100.00
39301;BME280;25019;42.626;23.380;2023-06-14T07:02:02;94231.31;;;20.43;100.00
39301;BME280;25019;42.626;23.380;2023-06-14T07:04:28;94254.34;;;20.66;100.00
39301;BME280;25019;42.626;23.380;2023-06-14T07:06:53;94264.88;;;20.94;100.00
39301;BME280;25019;42.626;23.380;2023-06-14T07:09:19;94271.69;;;21.01;100.00
39301;BME280;25019;42.626;23.380;2023-06-14T07:11:47;94256.91;;;20.98;100.00
39301;BME280;25019;42.626;23.380;2023-06-14T07:14:13;94271.06;;;21.04;100.00
39301;BME280;25019;42.626;23.380;2023-06-14T07:16:39;94175.44;;;20.43;100.00
39301;BME280;25019;42.626;23.380;2023-06-14T07:19:05;94267.41;;;20.91;100.00
39301;BME280;25019;42.626;23.380;2023-06-14T07:21:31;94262.47;;;20.93;100.00
39301;BME280;25019;42.626;23.380;2023-06-14T07:23:56;94254.53;;;20.97;100.00
39301;BME280;25019;42.626;23.380;2023-06-14T07:26:23;94258.94;;;21.63;100.00
39301;BME280;25019;42.626;23.380;2023-06-14T07:28:49;94264.38;;;22.32;100.00
39301;BME280;25019;42.626;23.380;2023-06-14T07:31:15;94250.50;;;22.12;100.00
39301;BME280;25019;42.626;23.380;2023-06-14T07:33:41;94258.03;;;22.36;100.00
39301;BME280;25019;42.626;23.380;2023-06-14T07:36:07;94248.50;;;22.30;100.00
39301;BME280;25019;42.626;23.380;2023-06-14T07:38:34;94249.81;;;22.54;100.00
39301;BME280;25019;42.626;23.380;2023-06-14T07:41:00;94256.91;;;22.37;100.00
39301;BME280;25019;42.626;23.380;2023-06-14T07:43:26;94258.88;;;22.58;100.00
39301;BME280;25019;42.626;23.380;2023-06-14T07:45:51;94201.53;;;22.43;95.69
39301;BME280;25019;42.626;23.380;2023-06-14T07:48:17;94256.25;;;22.92;90.64
39301;BME280;25019;42.626;23.380;2023-06-14T07:50:43;94256.06;;;22.97;89.52
39301;BME280;25019;42.626;23.380;2023-06-14T07:53:09;94264.25;;;22.88;88.18
39301;BME280;25019;42.626;23.380;2023-06-14T07:55:35;94263.69;;;22.73;88.83
39301;BME280;25019;42.626;23.380;2023-06-14T07:58:08;94259.75;;;22.92;89.89
39301;BME280;25019;42.626;23.380;2023-06-14T08:00:34;94269.19;;;22.86;86.43
39301;BME280;25019;42.626;23.380;2023-06-14T08:03:00;94254.97;;;22.68;87.40
39301;BME280;25019;42.626;23.380;2023-06-14T08:05:27;94221.72;;;22.37;86.94
39301;BME280;25019;42.626;23.380;2023-06-14T08:07:53;94272.34;;;22.67;86.97
39301;BME280;25019;42.626;23.380;2023-06-14T08:10:19;94199.72;;;21.88;87.54
39301;BME280;25019;42.626;23.380;2023-06-14T08:12:45;94292.44;;;22.27;87.49
39301;BME280;25019;42.626;23.380;2023-06-14T08:15:10;94293.19;;;22.36;87.17
39301;BME280;25019;42.626;23.380;2023-06-14T08:17:36;94285.34;;;22.52;86.36
39301;BME280;25019;42.626;23.380;2023-06-14T08:20:02;94286.22;;;22.65;84.66
39301;BME280;25019;42.626;23.380;2023-06-14T08:22:30;94285.88;;;22.67;85.40
39301;BME280;25019;42.626;23.380;2023-06-14T08:24:59;94284.94;;;22.63;84.79
39301;BME280;25019;42.626;23.380;2023-06-14T08:27:26;94272.47;;;22.40;83.68
39301;BME280;25019;42.626;23.380;2023-06-14T08:29:52;94298.41;;;22.41;84.06
39301;BME280;25019;42.626;23.380;2023-06-14T08:32:18;94296.28;;;22.56;83.68
39301;BME280;25019;42.626;23.380;2023-06-14T08:34:43;94296.94;;;22.53;83.25
39301;BME280;25019;42.626;23.380;2023-06-14T08:37:09;94296.66;;;22.37;82.83
39301;BME280;25019;42.626;23.380;2023-06-14T08:39:34;94298.06;;;22.52;83.36
39301;BME280;25019;42.626;23.380;2023-06-14T08:42:01;94283.34;;;22.62;82.19
39301;BME280;25019;42.626;23.380;2023-06-14T08:44:29;94274.28;;;22.66;84.00
39301;BME280;25019;42.626;23.380;2023-06-14T08:46:59;94287.06;;;22.57;81.96
39301;BME280;25019;42.626;23.380;2023-06-14T08:49:25;94282.44;;;22.79;81.07
39301;BME280;25019;42.626;23.380;2023-06-14T08:51:59;94278.75;;;23.04;79.13
39301;BME280;25019;42.626;23.380;2023-06-14T08:54:25;94224.81;;;22.57;79.57
39301;BME280;25019;42.626;23.380;2023-06-14T08:56:53;94273.56;;;22.99;81.61
39301;BME280;25019;42.626;23.380;2023-06-14T08:59:24;94275.97;;;23.22;82.04
39301;BME280;25019;42.626;23.380;2023-06-14T09:01:51;94276.34;;;23.33;80.39
39301;BME280;25019;42.626;23.380;2023-06-14T09:04:18;94286.06;;;23.34;77.99
39301;BME280;25019;42.626;23.380;2023-06-14T09:06:45;94207.72;;;22.86;78.43
39301;BME280;25019;42.626;23.380;2023-06-14T09:09:11;94246.44;;;23.20;77.57
39301;BME280;25019;42.626;23.380;2023-06-14T09:11:37;94271.25;;;23.31;77.13
39301;BME280;25019;42.626;23.380;2023-06-14T09:14:03;94270.06;;;23.41;78.24
39301;BME280;25019;42.626;23.380;2023-06-14T09:16:32;94190.75;;;22.98;75.54
39301;BME280;25019;42.626;23.380;2023-06-14T09:18:58;94274.13;;;23.47;74.34
39301;BME280;25019;42.626;23.380;2023-06-14T09:21:24;94211.00;;;23.13;75.43
39301;BME280;25019;42.626;23.380;2023-06-14T09:23:49;94257.34;;;23.67;74.52
39301;BME280;25019;42.626;23.380;2023-06-14T09:26:16;94268.53;;;23.99;73.89
39301;BME280;25019;42.626;23.380;2023-06-14T09:28:47;94270.69;;;24.18;73.81
39301;BME280;25019;42.626;23.380;2023-06-14T09:31:15;94275.34;;;24.30;73.14
39301;BME280;25019;42.626;23.380;2023-06-14T09:33:45;94260.28;;;24.07;71.24
39301;BME280;25019;42.626;23.380;2023-06-14T09:38:51;94264.94;;;24.19;70.54
39301;BME280;25019;42.626;23.380;2023-06-14T09:41:17;94254.28;;;24.14;70.70
39301;BME280;25019;42.626;23.380;2023-06-14T09:43:43;94254.84;;;23.95;72.91
39301;BME280;25019;42.626;23.380;2023-06-14T09:46:10;94221.34;;;23.66;73.03
39301;BME280;25019;42.626;23.380;2023-06-14T09:48:36;94258.13;;;24.01;72.89
39301;BME280;25019;42.626;23.380;2023-06-14T09:51:03;94250.63;;;23.85;72.09
39301;BME280;25019;42.626;23.380;2023-06-14T09:53:33;94248.16;;;23.80;72.46
39301;BME280;25019;42.626;23.380;2023-06-14T09:56:01;94248.47;;;23.78;71.84
39301;BME280;25019;42.626;23.380;2023-06-14T09:58:28;94249.94;;;23.88;71.86
39301;BME280;25019;42.626;23.380;2023-06-14T10:00:54;94248.19;;;24.05;71.77
39301;BME280;25019;42.626;23.380;2023-06-14T10:03:30;94244.56;;;24.13;69.64
39301;BME280;25019;42.626;23.380;2023-06-14T10:05:59;94241.06;;;24.37;69.21
39301;BME280;25019;42.626;23.380;2023-06-14T10:08:30;94190.63;;;24.49;69.04
39301;BME280;25019;42.626;23.380;2023-06-14T10:10:59;94227.03;;;25.13;69.15
39301;BME280;25019;42.626;23.380;2023-06-14T10:13:26;94221.31;;;25.03;69.43
39301;BME280;25019;42.626;23.380;2023-06-14T10:16:20;94190.91;;;24.85;69.05
39301;BME280;25019;42.626;23.380;2023-06-14T10:24:29;94215.63;;;24.54;69.56
39301;BME280;25019;42.626;23.380;2023-06-14T10:26:57;94219.22;;;24.59;69.21
39301;BME280;25019;42.626;23.380;2023-06-14T10:29:24;94219.41;;;24.91;69.14
39301;BME280;25019;42.626;23.380;2023-06-14T10:31:51;94220.84;;;25.01;69.73
39301;BME280;25019;42.626;23.380;2023-06-14T10:34:25;94225.09;;;25.14;68.06
39301;BME280;25019;42.626;23.380;2023-06-14T10:37:10;94222.88;;;25.32;67.67
39301;BME280;25019;42.626;23.380;2023-06-14T10:39:44;94153.16;;;25.08;67.56
39301;BME280;25019;42.626;23.380;2023-06-14T10:42:11;94210.88;;;25.33;66.69
39301;BME280;25019;42.626;23.380;2023-06-14T10:47:07;94210.97;;;25.08;67.04
39301;BME280;25019;42.626;23.380;2023-06-14T10:49:44;94181.16;;;24.43;68.28
39301;BME280;25019;42.626;23.380;2023-06-14T10:52:14;94194.84;;;24.87;69.23
39301;BME280;25019;42.626;23.380;2023-06-14T10:55:12;94202.47;;;24.81;66.64
39301;BME280;25019;42.626;23.380;2023-06-14T10:57:50;94198.16;;;24.68;67.21
39301;BME280;25019;42.626;23.380;2023-06-14T11:00:24;94189.00;;;24.60;66.58
39301;BME280;25019;42.626;23.380;2023-06-14T11:11:17;94173.75;;;24.56;68.25
39301;BME280;25019;42.626;23.380;2023-06-14T11:13:44;94180.72;;;24.69;68.13
39301;BME280;25019;42.626;23.380;2023-06-14T11:16:12;94146.63;;;24.56;65.35
39301;BME280;25019;42.626;23.380;2023-06-14T11:18:38;94180.53;;;24.74;64.72
39301;BME280;25019;42.626;23.380;2023-06-14T11:21:04;94180.38;;;24.83;66.55
39301;BME280;25019;42.626;23.380;2023-06-14T11:23:30;94179.34;;;24.47;66.14
39301;BME280;25019;42.626;23.380;2023-06-14T11:25:55;94173.97;;;24.63;67.56
39301;BME280;25019;42.626;23.380;2023-06-14T11:28:21;94167.78;;;24.50;65.94
39301;BME280;25019;42.626;23.380;2023-06-14T11:30:48;94167.53;;;24.55;66.49
39301;BME280;25019;42.626;23.380;2023-06-14T11:33:18;94115.66;;;24.44;66.89
39301;BME280;25019;42.626;23.380;2023-06-14T11:35:44;94172.69;;;24.85;66.29
39301;BME280;25019;42.626;23.380;2023-06-14T11:38:10;94184.53;;;25.21;64.14
39301;BME280;25019;42.626;23.380;2023-06-14T11:40:38;94127.69;;;25.00;61.34
39301;BME280;25019;42.626;23.380;2023-06-14T11:43:04;94171.59;;;25.31;63.53
39301;BME280;25019;42.626;23.380;2023-06-14T11:45:30;94167.78;;;25.19;63.74
39301;BME280;25019;42.626;23.380;2023-06-14T11:47:57;94148.31;;;24.73;66.25
39301;BME280;25019;42.626;23.380;2023-06-14T11:50:24;94159.78;;;24.82;67.84
39301;BME280;25019;42.626;23.380;2023-06-14T11:52:56;94145.78;;;24.80;66.65
39301;BME280;25019;42.626;23.380;2023-06-14T11:55:23;94154.69;;;24.93;66.06
39301;BME280;25019;42.626;23.380;2023-06-14T11:57:49;94123.25;;;25.08;63.42
39301;BME280;25019;42.626;23.380;2023-06-14T12:00:15;94128.94;;;25.03;61.89
39301;BME280;25019;42.626;23.380;2023-06-14T12:02:42;94118.09;;;25.03;61.15
39301;BME280;25019;42.626;23.380;2023-06-14T12:05:08;94122.63;;;24.98;62.31
39301;BME280;25019;42.626;23.380;2023-06-14T12:07:37;94123.81;;;24.85;62.72
39301;BME280;25019;42.626;23.380;2023-06-14T12:10:09;94125.22;;;24.79;62.80
39301;BME280;25019;42.626;23.380;2023-06-14T12:12:39;94117.97;;;24.71;64.83
39301;BME280;25019;42.626;23.380;2023-06-14T12:15:06;94126.09;;;24.71;63.54
39301;BME280;25019;42.626;23.380;2023-06-14T12:17:34;94116.63;;;24.64;64.58
39301;BME280;25019;42.626;23.380;2023-06-14T12:20:05;94132.47;;;24.75;66.19
39301;BME280;25019;42.626;23.380;2023-06-14T12:22:46;94119.41;;;24.80;65.13
39301;BME280;25019;42.626;23.380;2023-06-14T12:25:26;94124.28;;;25.03;65.32
39301;BME280;25019;42.626;23.380;2023-06-14T12:27:54;94120.53;;;25.08;65.82
39301;BME280;25019;42.626;23.380;2023-06-14T12:30:19;94117.06;;;25.23;64.64
39301;BME280;25019;42.626;23.380;2023-06-14T12:32:45;94111.56;;;25.36;65.16
39301;BME280;25019;42.626;23.380;2023-06-14T12:35:11;94111.56;;;25.36;64.96
39301;BME280;25019;42.626;23.380;2023-06-14T12:37:36;94103.25;;;25.45;64.08
39301;BME280;25019;42.626;23.380;2023-06-14T12:40:02;94104.84;;;25.46;62.93
39301;BME280;25019;42.626;23.380;2023-06-14T12:42:32;94110.06;;;25.38;60.74
39301;BME280;25019;42.626;23.380;2023-06-14T12:44:59;94104.69;;;25.42;62.39
39301;BME280;25019;42.626;23.380;2023-06-14T12:47:25;94044.91;;;24.94;60.76
39301;BME280;25019;42.626;23.380;2023-06-14T12:49:51;94100.91;;;25.15;61.99
39301;BME280;25019;42.626;23.380;2023-06-14T12:52:16;94092.31;;;24.96;62.92
39301;BME280;25019;42.626;23.380;2023-06-14T12:54:42;94091.41;;;24.92;65.61
39301;BME280;25019;42.626;23.380;2023-06-14T12:57:08;94078.47;;;24.73;68.13
39301;BME280;25019;42.626;23.380;2023-06-14T12:59:33;94087.16;;;24.50;70.38
39301;BME280;25019;42.626;23.380;2023-06-14T13:02:10;94103.16;;;24.27;73.22
39301;BME280;25019;42.626;23.380;2023-06-14T13:04:36;94092.22;;;23.86;75.61